createdAt,value
2018-04-10T00:00:57.847Z,21.60
2018-04-10T00:03:26.124Z,21.40
2018-04-10T00:05:53.539Z,21.20
2018-04-10T00:08:20.997Z,21.10
2018-04-10T00:10:49.194Z,20.90
2018-04-10T00:13:16.635Z,20.90
2018-04-10T00:15:44.832Z,20.90
2018-04-10T00:18:12.304Z,20.90
2018-04-10T00:20:39.752Z,21.20
2018-04-10T00:23:08.102Z,21.20
2018-04-10T00:25:36.291Z,21.10
2018-04-10T00:28:03.737Z,21.10
2018-04-10T00:30:31.978Z,21.20
2018-04-10T00:32:59.419Z,21.20
2018-04-10T00:35:26.879Z,21.20
2018-04-10T00:37:54.327Z,21.00
2018-04-10T00:40:21.780Z,20.90
2018-04-10T00:42:49.236Z,21.10
2018-04-10T00:45:16.680Z,21.10
2018-04-10T00:47:44.127Z,21.00
2018-04-10T00:50:11.602Z,21.00
2018-04-10T00:52:39.042Z,21.30
2018-04-10T00:55:06.522Z,21.20
2018-04-10T00:57:33.950Z,21.40
2018-04-10T01:00:01.405Z,21.40
2018-04-10T01:02:28.882Z,21.40
2018-04-10T01:04:56.324Z,21.50
2018-04-10T01:07:23.779Z,21.40
2018-04-10T01:09:51.424Z,21.60
2018-04-10T01:12:19.657Z,21.70
2018-04-10T01:14:47.875Z,21.80
2018-04-10T01:17:16.106Z,21.60
2018-04-10T01:19:43.523Z,21.60
2018-04-10T01:22:10.968Z,21.50
2018-04-10T01:24:39.184Z,21.70
2018-04-10T01:27:06.615Z,21.70
2018-04-10T01:29:34.068Z,21.70
2018-04-10T01:32:01.505Z,21.60
2018-04-10T01:34:28.957Z,21.50
2018-04-10T01:36:56.382Z,21.40
2018-04-10T01:39:23.838Z,21.20
2018-04-10T01:41:51.286Z,21.30
2018-04-10T01:44:18.737Z,21.50
2018-04-10T01:46:46.197Z,21.60
2018-04-10T01:49:13.622Z,21.60
2018-04-10T01:51:41.814Z,20.70
2018-04-10T01:54:09.263Z,20.70
2018-04-10T01:56:36.703Z,20.20
2018-04-10T01:59:05.039Z,20.50
2018-04-10T02:01:32.468Z,20.50
2018-04-10T02:04:00.075Z,20.90
2018-04-10T02:06:27.533Z,21.10
2018-04-10T02:08:54.979Z,21.00
2018-04-10T02:11:22.419Z,20.70
2018-04-10T02:13:49.863Z,20.80
2018-04-10T02:16:17.313Z,21.10
2018-04-10T02:18:45.523Z,21.30
2018-04-10T02:21:13.000Z,21.30
2018-04-10T02:23:40.438Z,21.30
2018-04-10T02:26:08.311Z,21.10
2018-04-10T02:28:35.777Z,21.10
2018-04-10T02:31:03.295Z,21.10
2018-04-10T02:33:30.743Z,20.90
2018-04-10T02:35:58.191Z,20.90
2018-04-10T02:38:26.408Z,20.70
2018-04-10T02:40:53.850Z,20.60
2018-04-10T02:43:21.296Z,20.60
2018-04-10T02:45:48.728Z,20.60
2018-04-10T02:48:16.969Z,20.20
2018-04-10T02:50:44.604Z,20.20
2018-04-10T02:53:12.039Z,19.70
2018-04-10T02:55:39.474Z,19.60
2018-04-10T02:58:08.595Z,20.00
2018-04-10T03:00:36.052Z,20.00
2018-04-10T03:03:03.709Z,19.90
2018-04-10T03:05:31.899Z,20.00
2018-04-10T03:07:59.345Z,20.00
2018-04-10T03:10:26.782Z,20.00
2018-04-10T03:12:55.000Z,20.00
2018-04-10T03:15:22.456Z,20.00
2018-04-10T03:17:49.888Z,20.00
2018-04-10T03:20:17.344Z,19.80
2018-04-10T03:22:45.567Z,19.70
2018-04-10T03:25:13.009Z,19.70
2018-04-10T03:27:40.442Z,19.80
2018-04-10T03:30:08.471Z,19.80
2018-04-10T03:32:35.911Z,19.60
2018-04-10T03:35:03.415Z,19.50
2018-04-10T03:37:30.871Z,19.40
2018-04-10T03:39:59.085Z,19.50
2018-04-10T03:42:26.526Z,19.40
2018-04-10T03:44:53.989Z,19.60
2018-04-10T03:47:21.423Z,19.80
2018-04-10T03:49:49.641Z,19.40
2018-04-10T03:52:17.087Z,19.40
2018-04-10T03:54:44.510Z,19.30
2018-04-10T03:57:12.727Z,19.60
2018-04-10T03:59:40.189Z,19.50
2018-04-10T04:02:08.535Z,19.30
2018-04-10T04:04:35.974Z,19.10
2018-04-10T04:07:03.405Z,19.10
2018-04-10T04:09:30.845Z,19.10
2018-04-10T04:11:58.305Z,18.90
2018-04-10T04:14:25.786Z,18.70
2018-04-10T04:17:05.100Z,18.70
2018-04-10T04:19:44.561Z,18.70
2018-04-10T04:22:24.708Z,18.60
2018-04-10T04:24:52.146Z,18.50
2018-04-10T04:27:19.595Z,18.30
2018-04-10T04:29:47.049Z,18.30
2018-04-10T04:32:14.474Z,18.50
2018-04-10T04:34:41.971Z,18.40
2018-04-10T04:37:09.395Z,18.60
2018-04-10T04:39:36.841Z,18.80
2018-04-10T04:42:05.052Z,19.00
2018-04-10T04:44:32.509Z,19.00
2018-04-10T04:46:59.947Z,19.10
2018-04-10T04:49:27.383Z,19.10
2018-04-10T04:51:55.604Z,18.90
2018-04-10T04:54:23.059Z,18.90
2018-04-10T04:56:50.495Z,18.80
2018-04-10T04:59:17.927Z,19.00
2018-04-10T05:01:46.130Z,19.30
2018-04-10T05:04:13.566Z,19.30
2018-04-10T05:06:41.827Z,19.40
2018-04-10T05:09:10.215Z,19.30
2018-04-10T05:11:37.623Z,19.40
2018-04-10T05:14:05.074Z,19.30
2018-04-10T05:16:32.506Z,19.10
2018-04-10T05:19:00.024Z,19.10
2018-04-10T05:21:27.463Z,19.00
2018-04-10T05:23:55.616Z,18.90
2018-04-10T05:26:23.048Z,19.00
2018-04-10T05:28:51.254Z,19.50
2018-04-10T05:31:18.701Z,19.50
2018-04-10T05:33:46.143Z,19.70
2018-04-10T05:36:13.581Z,19.80
2018-04-10T05:38:41.776Z,20.00
2018-04-10T05:41:09.217Z,20.00
2018-04-10T05:43:37.415Z,20.00
2018-04-10T05:46:04.899Z,20.00
2018-04-10T05:48:32.363Z,20.10
2018-04-10T05:50:59.803Z,20.20
2018-04-10T05:53:27.226Z,20.30
2018-04-10T05:55:55.444Z,20.60
2018-04-10T05:58:22.875Z,20.50
2018-04-10T06:00:50.316Z,20.70
2018-04-10T06:03:18.538Z,20.90
2018-04-10T06:05:46.043Z,20.90
2018-04-10T06:08:13.510Z,21.10
2018-04-10T06:10:41.708Z,21.40
2018-04-10T06:13:09.167Z,21.30
2018-04-10T06:15:37.351Z,21.70
2018-04-10T06:18:04.790Z,21.70
2018-04-10T06:20:32.235Z,21.90
2018-04-10T06:23:01.088Z,22.30
2018-04-10T06:25:28.551Z,22.30
2018-04-10T06:27:55.990Z,22.60
2018-04-10T06:30:23.443Z,23.00
2018-04-10T06:32:50.880Z,23.50
2018-04-10T06:35:18.315Z,23.80
2018-04-10T06:37:46.505Z,24.60
2018-04-10T06:40:13.964Z,24.50
2018-04-10T06:42:41.403Z,24.40
2018-04-10T06:45:09.800Z,24.30
2018-04-10T06:47:37.275Z,24.30
2018-04-10T06:50:05.487Z,23.90
2018-04-10T06:52:32.935Z,23.90
2018-04-10T06:55:01.311Z,24.60
2018-04-10T06:57:28.763Z,25.50
2018-04-10T06:59:56.251Z,25.70
2018-04-10T07:02:23.676Z,25.20
2018-04-10T07:04:51.120Z,24.80
2018-04-10T07:07:19.273Z,24.80
2018-04-10T07:09:46.731Z,25.10
2018-04-10T07:12:14.174Z,24.90
2018-04-10T07:14:42.383Z,25.00
2018-04-10T07:17:09.841Z,25.00
2018-04-10T07:19:37.282Z,24.90
2018-04-10T07:22:04.728Z,24.30
2018-04-10T07:24:32.927Z,23.40
2018-04-10T07:27:00.381Z,23.40
2018-04-10T07:29:27.841Z,23.30
2018-04-10T07:31:55.261Z,23.60
2018-04-10T07:34:23.470Z,23.70
2018-04-10T07:36:50.907Z,23.70
2018-04-10T07:39:18.343Z,24.00
2018-04-10T07:41:46.543Z,24.30
2018-04-10T07:44:14.031Z,24.30
2018-04-10T07:46:41.466Z,24.70
2018-04-10T07:49:09.759Z,25.10
2018-04-10T07:51:37.211Z,25.10
2018-04-10T07:54:04.643Z,25.50
2018-04-10T07:56:32.850Z,26.90
2018-04-10T07:59:00.288Z,26.80
2018-04-10T08:01:27.718Z,27.30
2018-04-10T08:03:55.925Z,27.50
2018-04-10T08:06:23.359Z,27.50
2018-04-10T08:08:51.565Z,27.90
2018-04-10T08:11:19.039Z,27.80
2018-04-10T08:13:46.472Z,26.70
2018-04-10T08:16:13.895Z,26.50
2018-04-10T08:18:42.133Z,26.30
2018-04-10T08:21:09.571Z,26.30
2018-04-10T08:23:37.015Z,26.50
2018-04-10T08:26:04.472Z,26.90
2018-04-10T08:28:31.911Z,26.60
2018-04-10T08:31:00.118Z,26.50
2018-04-10T08:33:27.543Z,26.50
2018-04-10T08:35:55.741Z,27.30
2018-04-10T08:38:23.189Z,27.30
2018-04-10T08:40:51.372Z,26.70
2018-04-10T08:43:18.811Z,26.70
2018-04-10T08:45:47.119Z,27.50
2018-04-10T08:48:14.540Z,27.50
2018-04-10T08:50:42.744Z,28.60
2018-04-10T08:53:10.202Z,28.60
2018-04-10T08:55:37.628Z,29.60
2018-04-10T08:58:06.489Z,31.30
2018-04-10T09:00:33.923Z,31.30
2018-04-10T09:03:01.365Z,30.80
2018-04-10T09:05:28.809Z,30.40
2018-04-10T09:07:56.244Z,31.40
2018-04-10T09:10:24.468Z,33.80
2018-04-10T09:12:51.915Z,33.70
2018-04-10T09:15:19.348Z,35.20
2018-04-10T09:17:47.554Z,36.00
2018-04-10T09:20:15.803Z,35.90
2018-04-10T09:22:43.249Z,36.40
2018-04-10T09:25:11.461Z,36.30
2018-04-10T09:27:38.905Z,36.20
2018-04-10T09:30:07.094Z,33.70
2018-04-10T09:32:34.530Z,33.60
2018-04-10T09:35:01.967Z,34.50
2018-04-10T09:37:30.185Z,35.40
2018-04-10T09:39:57.628Z,35.40
2018-04-10T09:42:25.089Z,32.80
2018-04-10T09:44:52.543Z,32.90
2018-04-10T09:47:19.982Z,32.00
2018-04-10T09:49:48.185Z,31.80
2018-04-10T09:52:15.645Z,31.80
2018-04-10T09:54:43.079Z,31.10
2018-04-10T09:57:10.512Z,30.70
2018-04-10T09:59:37.969Z,30.60
2018-04-10T10:02:05.409Z,30.80
2018-04-10T10:04:32.859Z,31.30
2018-04-10T10:07:00.289Z,31.40
2018-04-10T10:09:27.732Z,31.50
2018-04-10T10:11:55.164Z,30.70
2018-04-10T10:14:23.377Z,31.00
2018-04-10T10:16:50.815Z,31.00
2018-04-10T10:19:18.260Z,31.70
2018-04-10T10:21:46.464Z,32.10
2018-04-10T10:24:14.744Z,32.30
2018-04-10T10:26:42.207Z,32.20
2018-04-10T10:29:09.652Z,31.90
2018-04-10T10:31:37.091Z,32.30
2018-04-10T10:34:05.324Z,33.80
2018-04-10T10:36:32.773Z,33.80
2018-04-10T10:39:00.195Z,34.90
2018-04-10T10:41:27.623Z,35.60
2018-04-10T10:43:55.844Z,36.50
2018-04-10T10:46:23.267Z,36.50
2018-04-10T10:48:51.484Z,37.30
2018-04-10T10:51:19.691Z,38.70
2018-04-10T10:53:47.140Z,38.60
2018-04-10T10:56:14.605Z,39.40
2018-04-10T10:58:42.042Z,39.80
2018-04-10T11:01:09.496Z,39.30
2018-04-10T11:03:36.954Z,40.00
2018-04-10T11:06:04.399Z,39.70
2018-04-10T11:08:31.828Z,39.70
2018-04-10T11:10:59.284Z,40.20
2018-04-10T11:13:27.603Z,40.10
2018-04-10T11:15:55.085Z,40.10
2018-04-10T11:18:22.524Z,40.20
2018-04-10T11:20:50.731Z,39.80
2018-04-10T11:23:18.164Z,39.70
2018-04-10T11:25:45.612Z,39.60
2018-04-10T11:28:13.061Z,39.30
2018-04-10T11:30:40.479Z,38.70
2018-04-10T11:33:07.918Z,38.20
2018-04-10T11:35:35.403Z,37.50
2018-04-10T11:38:02.851Z,37.20
2018-04-10T11:40:31.068Z,38.60
2018-04-10T11:42:58.508Z,38.60
2018-04-10T11:45:25.945Z,39.00
2018-04-10T11:47:54.151Z,39.20
2018-04-10T11:50:21.611Z,39.20
2018-04-10T11:52:49.046Z,40.20
2018-04-10T11:55:16.489Z,40.10
2018-04-10T11:57:44.706Z,40.40
2018-04-10T12:00:12.206Z,40.30
2018-04-10T12:02:39.590Z,40.30
2018-04-10T12:05:07.037Z,40.10
2018-04-10T12:07:35.239Z,39.30
2018-04-10T12:10:02.687Z,39.30
2018-04-10T12:12:30.193Z,39.20
2018-04-10T12:14:57.634Z,39.30
2018-04-10T12:17:25.075Z,39.70
2018-04-10T12:19:52.516Z,39.90
2018-04-10T12:22:19.955Z,40.10
2018-04-10T12:24:48.174Z,40.10
2018-04-10T12:27:15.619Z,40.00
2018-04-10T12:29:43.051Z,40.10
2018-04-10T12:32:10.515Z,39.80
2018-04-10T12:34:37.967Z,40.10
2018-04-10T12:37:06.176Z,40.70
2018-04-10T12:39:33.630Z,40.60
2018-04-10T12:42:01.884Z,40.30
2018-04-10T12:44:29.338Z,40.10
2018-04-10T12:46:57.535Z,39.80
2018-04-10T12:49:24.974Z,39.70
2018-04-10T12:51:52.409Z,40.30
2018-04-10T12:54:20.729Z,40.60
2018-04-10T12:56:48.161Z,40.60
2018-04-10T12:59:16.359Z,40.20
2018-04-10T13:01:43.796Z,40.20
2018-04-10T13:04:11.246Z,40.00
2018-04-10T13:06:39.435Z,40.20
2018-04-10T13:09:06.868Z,40.10
2018-04-10T13:11:35.094Z,40.80
2018-04-10T13:14:02.565Z,40.80
2018-04-10T13:16:29.966Z,40.80
2018-04-10T13:18:58.168Z,41.20
2018-04-10T13:21:25.622Z,41.10
2018-04-10T13:23:53.055Z,41.50
2018-04-10T13:26:21.264Z,41.30
2018-04-10T13:28:48.719Z,41.30
2018-04-10T13:31:16.187Z,41.40
2018-04-10T13:33:43.628Z,41.60
2018-04-10T13:36:11.808Z,41.50
2018-04-10T13:38:39.239Z,41.40
2018-04-10T13:41:06.686Z,41.20
2018-04-10T13:43:34.887Z,40.80
2018-04-10T13:46:02.339Z,40.80
2018-04-10T13:48:29.767Z,40.90
2018-04-10T13:50:57.987Z,40.30
2018-04-10T13:53:25.438Z,40.20
2018-04-10T13:55:52.879Z,40.10
2018-04-10T13:58:20.323Z,40.10
2018-04-10T14:00:48.549Z,39.90
2018-04-10T14:03:15.991Z,39.80
2018-04-10T14:05:43.435Z,40.10
2018-04-10T14:08:10.873Z,40.20
2018-04-10T14:10:39.080Z,40.30
2018-04-10T14:13:06.511Z,40.30
2018-04-10T14:15:34.819Z,39.40
2018-04-10T14:18:02.318Z,39.40
2018-04-10T14:20:29.761Z,38.90
2018-04-10T14:22:57.178Z,38.50
2018-04-10T14:25:24.635Z,38.50
2018-04-10T14:27:52.180Z,38.40
2018-04-10T14:30:20.414Z,38.20
2018-04-10T14:32:47.855Z,38.10
2018-04-10T14:35:15.290Z,37.60
2018-04-10T14:37:42.735Z,37.30
2018-04-10T14:40:10.175Z,37.20
2018-04-10T14:42:38.400Z,37.30
2018-04-10T14:45:05.845Z,37.30
2018-04-10T14:47:33.336Z,36.70
2018-04-10T14:50:00.707Z,36.00
2018-04-10T14:52:28.156Z,35.50
2018-04-10T14:54:55.585Z,35.20
2018-04-10T14:57:23.034Z,35.10
2018-04-10T14:59:50.480Z,34.20
2018-04-10T15:02:17.951Z,33.60
2018-04-10T15:04:45.386Z,33.80
2018-04-10T15:07:12.883Z,34.00
2018-04-10T15:09:40.339Z,33.90
2018-04-10T15:12:07.786Z,34.10
2018-04-10T15:14:35.199Z,34.40
2018-04-10T15:17:03.455Z,34.50
2018-04-10T15:19:30.887Z,34.40
2018-04-10T15:21:58.335Z,33.80
2018-04-10T15:24:25.813Z,34.10
2018-04-10T15:26:53.358Z,34.50
2018-04-10T15:29:20.815Z,34.50
2018-04-10T15:31:48.283Z,34.60
2018-04-10T15:34:15.775Z,34.50
2018-04-10T15:36:43.195Z,34.30
2018-04-10T15:39:10.659Z,34.00
2018-04-10T15:41:38.099Z,33.50
2018-04-10T15:44:05.559Z,33.30
2018-04-10T15:46:33.007Z,32.80
2018-04-10T15:49:00.449Z,32.70
2018-04-10T15:51:27.895Z,32.50
2018-04-10T15:53:55.331Z,31.30
2018-04-10T15:56:23.568Z,31.00
2018-04-10T15:58:50.994Z,30.90
2018-04-10T16:01:18.534Z,31.10
2018-04-10T16:03:45.958Z,31.20
2018-04-10T16:06:13.500Z,31.20
2018-04-10T16:08:40.929Z,30.90
2018-04-10T16:11:08.372Z,30.40
2018-04-10T16:13:36.589Z,30.20
2018-04-10T16:16:04.033Z,30.20
2018-04-10T16:18:31.469Z,30.20
2018-04-10T16:20:58.916Z,29.90
2018-04-10T16:23:26.412Z,29.70
2018-04-10T16:25:54.626Z,29.50
2018-04-10T16:28:22.091Z,29.30
2018-04-10T16:30:49.524Z,29.00
2018-04-10T16:33:16.987Z,28.80
2018-04-10T16:35:44.431Z,28.80
2018-04-10T16:38:12.707Z,28.50
2018-04-10T16:40:40.152Z,28.50
2018-04-10T16:43:07.583Z,28.20
2018-04-10T16:45:35.033Z,28.00
2018-04-10T16:48:03.269Z,28.10
2018-04-10T16:50:30.715Z,28.10
2018-04-10T16:52:58.168Z,27.90
2018-04-10T16:55:25.603Z,27.90
2018-04-10T16:57:53.059Z,27.80
2018-04-10T17:00:20.495Z,27.90
2018-04-10T17:02:48.704Z,27.80
2018-04-10T17:05:16.143Z,27.80
2018-04-10T17:07:43.604Z,28.00
2018-04-10T17:10:11.054Z,27.80
2018-04-10T17:12:38.548Z,28.00
2018-04-10T17:15:06.724Z,27.90
2018-04-10T17:17:34.180Z,27.90
2018-04-10T17:20:01.631Z,27.80
2018-04-10T17:22:29.078Z,27.70
2018-04-10T17:24:56.566Z,27.70
2018-04-10T17:27:24.043Z,27.60
2018-04-10T17:29:52.397Z,27.40
2018-04-10T17:32:19.877Z,27.40
2018-04-10T17:34:47.321Z,27.40
2018-04-10T17:37:14.772Z,27.20
2018-04-10T17:39:42.203Z,27.20
2018-04-10T17:42:10.312Z,27.10
2018-04-10T17:44:37.836Z,26.90
2018-04-10T17:47:05.264Z,26.80
2018-04-10T17:49:33.460Z,26.90
2018-04-10T17:52:00.903Z,26.90
2018-04-10T17:54:28.345Z,26.90
2018-04-10T17:56:56.557Z,26.80
2018-04-10T17:59:23.984Z,26.80
2018-04-10T18:01:52.604Z,26.80
2018-04-10T18:04:20.031Z,26.70
2018-04-10T18:06:48.402Z,26.70
2018-04-10T18:09:16.600Z,26.60
2018-04-10T18:11:44.028Z,26.50
2018-04-10T18:14:12.242Z,26.50
2018-04-10T18:16:39.682Z,26.50
2018-04-10T18:19:07.702Z,26.50
2018-04-10T18:21:35.631Z,26.50
2018-04-10T18:24:03.071Z,26.30
2018-04-10T18:26:31.288Z,26.30
2018-04-10T18:28:58.735Z,26.20
2018-04-10T18:31:26.176Z,26.10
2018-04-10T18:33:53.640Z,26.10
2018-04-10T18:36:21.071Z,26.00
2018-04-10T18:38:49.280Z,25.80
2018-04-10T18:41:16.704Z,25.80
2018-04-10T18:43:44.923Z,25.70
2018-04-10T18:46:12.352Z,25.60
2018-04-10T18:48:39.794Z,25.70
2018-04-10T18:51:07.991Z,25.70
2018-04-10T18:53:35.685Z,25.60
2018-04-10T18:56:03.120Z,25.80
2018-04-10T18:58:30.553Z,25.60
2018-04-10T19:00:58.752Z,25.60
2018-04-10T19:03:26.187Z,25.60
2018-04-10T19:05:53.806Z,25.70
2018-04-10T19:08:21.248Z,25.70
2018-04-10T19:10:48.684Z,25.70
2018-04-10T19:13:16.127Z,25.70
2018-04-10T19:15:43.551Z,25.70
2018-04-10T19:18:11.023Z,25.60
2018-04-10T19:20:39.220Z,25.60
2018-04-10T19:23:06.653Z,25.60
2018-04-10T19:25:34.088Z,25.60
2018-04-10T19:28:01.527Z,25.60
2018-04-10T19:30:28.963Z,24.40
2018-04-10T19:32:56.403Z,23.50
2018-04-10T19:35:23.843Z,22.80
2018-04-10T19:37:52.043Z,22.50
2018-04-10T19:40:19.495Z,22.40
2018-04-10T19:42:46.922Z,22.00
2018-04-10T19:45:14.363Z,21.80
2018-04-10T19:47:41.795Z,21.60
2018-04-10T19:50:09.233Z,21.00
2018-04-10T19:52:36.660Z,20.90
2018-04-10T19:55:04.871Z,20.70
2018-04-10T19:57:32.299Z,20.60
2018-04-10T20:00:00.503Z,20.90
2018-04-10T20:02:27.930Z,20.90
2018-04-10T20:04:56.134Z,21.00
2018-04-10T20:07:23.576Z,21.00
2018-04-10T20:09:51.021Z,21.00
2018-04-10T20:12:19.217Z,21.30
2018-04-10T20:14:46.647Z,21.30
2018-04-10T20:17:14.851Z,21.20
2018-04-10T20:19:42.279Z,21.20
2018-04-10T20:22:11.296Z,21.40
2018-04-10T20:24:38.743Z,21.30
2018-04-10T20:27:06.939Z,21.20
2018-04-10T20:29:34.475Z,21.20
2018-04-10T20:32:02.691Z,20.70
2018-04-10T20:34:30.119Z,20.70
2018-04-10T20:36:57.554Z,20.80
2018-04-10T20:39:25.756Z,20.40
2018-04-10T20:44:44.430Z,20.40
2018-04-10T20:47:11.862Z,20.80
2018-04-10T20:49:40.057Z,20.90
2018-04-10T20:52:07.485Z,20.90
2018-04-10T20:54:35.704Z,20.40
2018-04-10T20:57:03.133Z,20.40
2018-04-10T20:59:30.564Z,20.30
2018-04-10T21:01:58.003Z,20.30
2018-04-10T21:04:25.470Z,20.20
2018-04-10T21:06:52.870Z,19.80
2018-04-10T21:09:20.299Z,20.00
2018-04-10T21:11:47.762Z,19.80
2018-04-10T21:14:15.218Z,20.00
2018-04-10T21:16:43.435Z,20.60
2018-04-10T21:19:10.867Z,20.60
2018-04-10T21:21:39.092Z,20.60
2018-04-10T21:24:06.557Z,20.60
2018-04-10T21:26:34.055Z,20.40
2018-04-10T21:29:02.250Z,20.20
2018-04-10T21:31:29.703Z,20.20
2018-04-10T21:33:57.147Z,20.60
2018-04-10T21:36:25.656Z,20.80
2018-04-10T21:38:53.083Z,20.80
2018-04-10T21:41:21.311Z,20.80
2018-04-10T21:43:48.762Z,20.80
2018-04-10T21:46:16.276Z,20.90
2018-04-10T21:48:44.487Z,20.50
2018-04-10T21:51:11.930Z,20.50
2018-04-10T21:53:39.363Z,20.20
2018-04-10T21:56:07.576Z,20.50
2018-04-10T21:58:35.839Z,20.70
2018-04-10T22:01:03.291Z,20.70
2018-04-10T22:03:30.711Z,20.80
2018-04-10T22:05:58.151Z,20.90
2018-04-10T22:08:25.600Z,20.90
2018-04-10T22:10:53.025Z,20.40
2018-04-10T22:13:20.471Z,20.30
2018-04-10T22:15:48.667Z,20.40
2018-04-10T22:18:16.202Z,20.40
2018-04-10T22:20:44.399Z,20.50
2018-04-10T22:23:11.837Z,20.50
2018-04-10T22:25:39.282Z,20.20
2018-04-10T22:28:07.477Z,19.80
2018-04-10T22:30:35.148Z,19.80
2018-04-10T22:33:02.536Z,19.90
2018-04-10T22:35:30.748Z,20.00
2018-04-10T22:37:58.190Z,20.00
2018-04-10T22:40:25.622Z,20.00
2018-04-10T22:42:53.103Z,20.00
2018-04-10T22:45:20.533Z,19.70
2018-04-10T22:47:48.010Z,19.90
2018-04-10T22:50:15.616Z,20.10
2018-04-10T22:52:43.095Z,20.20
2018-04-10T22:55:10.860Z,19.80
2018-04-10T22:57:38.303Z,20.00
2018-04-10T23:00:05.734Z,20.00
2018-04-10T23:02:33.178Z,19.80
2018-04-10T23:05:00.616Z,19.90
2018-04-10T23:07:28.055Z,20.00
2018-04-10T23:09:55.491Z,20.00
2018-04-10T23:12:22.931Z,19.60
2018-04-10T23:14:50.377Z,20.00
2018-04-10T23:17:19.283Z,20.00
2018-04-10T23:19:46.719Z,20.00
2018-04-10T23:22:14.925Z,20.00
2018-04-10T23:24:42.429Z,20.00
2018-04-10T23:27:09.861Z,19.90
2018-04-10T23:29:37.507Z,20.10
2018-04-10T23:32:04.963Z,20.00
2018-04-10T23:34:32.405Z,20.10
2018-04-10T23:37:00.618Z,19.80
2018-04-10T23:39:28.050Z,19.80
2018-04-10T23:41:55.511Z,19.50
2018-04-10T23:44:22.963Z,19.40
2018-04-10T23:46:51.174Z,19.80
2018-04-10T23:49:18.642Z,19.80
2018-04-10T23:51:46.072Z,19.60
2018-04-10T23:54:13.523Z,19.60
2018-04-10T23:56:40.964Z,19.60
2018-04-10T23:59:09.160Z,19.10
